»·PEaware :: N7375Q KWJF-49X

N7375Q :: KWJF-49X

FLIGHT INFORMATION

Flight Status: Arrived
Operator: Privately registered:
United States
More flights under this callsign
Pilot: Ion I. (24133)
Aircraft: SOCATA TBM-900
(TBM9)
More flights by this aircraft type
Origin: KWJF Gen Fox
United States
Destination: 49X Chemehuevi Valley
United States
More flights between these airports :: More routes between these airports
Route: PMD V12 EED
File this flight plan on PilotEdge
Remarks:
Altitude:
(Current/Filed)
17,000ft
Speed:
(Current/Filed)
250kts
Departed: 31-Jul-20 08:26 AM
Arrived: 31-Jul-20 09:17 AM
Distance/Time
Traveled:
187nm/0:51
Distance/Time
To Go:
Arrived

Flight Plot

Page will automatically refresh every two minutes.


Map Options




Map Legend


Flown Route
Filed Route
Departure Airport
Arrival Airport
Navaid (VOR, NDB)
Fix

Horizontal Profiles

Position Reports

Time Latitude Longitude Heading Altitude Ground
Speed
31-Jul-20 08:12 34.739602 -118.213554 250 2342ft 0kts
31-Jul-20 08:13 34.739602 -118.213554 250 2342ft 0kts
31-Jul-20 08:14 34.739602 -118.213554 250 2342ft 0kts
31-Jul-20 08:15 34.739602 -118.213554 250 2342ft 0kts
31-Jul-20 08:16 34.739602 -118.213554 250 2342ft 0kts
31-Jul-20 08:17 34.739602 -118.213555 250 2342ft 0kts
31-Jul-20 08:18 34.739602 -118.213555 250 2342ft 0kts
31-Jul-20 08:19 34.739602 -118.213555 250 2342ft 0kts
31-Jul-20 08:20 34.739602 -118.213555 250 2342ft 0kts
31-Jul-20 08:21 34.740487 -118.213283 342 2342ft 7kts
31-Jul-20 08:22 34.741916 -118.211745 72 2341ft 13kts
31-Jul-20 08:23 34.743136 -118.207210 72 2338ft 7kts
31-Jul-20 08:24 34.744032 -118.207474 265 2338ft 8kts
31-Jul-20 08:25 34.737645 -118.231509 253 3065ft 111kts
31-Jul-20 08:26 34.714734 -118.243334 103 4971ft 137kts
31-Jul-20 08:27 34.729453 -118.202021 63 7321ft 142kts
31-Jul-20 08:28 34.710981 -118.161128 139 9346ft 156kts
31-Jul-20 08:29 34.679645 -118.122731 141 11412ft 160kts
31-Jul-20 08:30 34.648426 -118.084744 140 13047ft 184kts
31-Jul-20 08:32 34.636415 -118.015235 84 13022ft 257kts
31-Jul-20 08:33 34.646104 -117.929832 85 13979ft 237kts
31-Jul-20 08:34 34.654113 -117.856131 86 15858ft 209kts
31-Jul-20 08:35 34.661689 -117.785808 84 17037ft 233kts
31-Jul-20 08:36 34.671162 -117.698014 84 17015ft 278kts
31-Jul-20 08:37 34.681381 -117.602322 84 17008ft 288kts
31-Jul-20 08:38 34.691689 -117.504943 84 17004ft 291kts
31-Jul-20 08:39 34.701956 -117.407201 84 17003ft 291kts
31-Jul-20 08:40 34.712178 -117.309281 85 17002ft 291kts
31-Jul-20 08:41 34.722299 -117.211512 85 17002ft 291kts
31-Jul-20 08:42 34.732346 -117.113697 85 17003ft 291kts
31-Jul-20 08:43 34.742268 -117.016151 85 17035ft 290kts
31-Jul-20 08:44 34.752120 -116.918355 85 17064ft 290kts
31-Jul-20 08:45 34.761853 -116.821046 85 17074ft 291kts
31-Jul-20 08:46 34.771573 -116.723095 85 17103ft 291kts
31-Jul-20 08:47 34.781207 -116.625251 85 17094ft 291kts
31-Jul-20 08:48 34.790766 -116.527369 85 17088ft 291kts
31-Jul-20 08:49 34.796795 -116.429469 93 17084ft 289kts
31-Jul-20 08:50 34.795976 -116.332632 93 17081ft 289kts
31-Jul-20 08:50 34.795253 -116.251020 93 17081ft 288kts
31-Jul-20 08:52 34.794155 -116.137048 93 17077ft 289kts
31-Jul-20 08:52 34.793301 -116.055416 93 17032ft 289kts
31-Jul-20 08:53 34.792206 -115.957132 93 16976ft 290kts
31-Jul-20 08:55 34.790827 -115.842857 93 16948ft 288kts
31-Jul-20 08:55 34.789779 -115.761377 93 16951ft 288kts
31-Jul-20 08:56 34.788454 -115.663788 93 16949ft 288kts
31-Jul-20 08:57 34.787020 -115.565381 93 16213ft 307kts
31-Jul-20 08:58 34.785422 -115.459018 93 14250ft 319kts
31-Jul-20 08:59 34.783668 -115.350845 93 12261ft 317kts
31-Jul-20 09:00 34.781815 -115.244074 92 10251ft 312kts
31-Jul-20 09:01 34.780009 -115.141021 90 9086ft 286kts
31-Jul-20 09:02 34.778268 -115.047298 90 9050ft 271kts
31-Jul-20 09:03 34.776504 -114.956329 90 8912ft 272kts
31-Jul-20 09:04 34.746353 -114.870282 120 7024ft 276kts
31-Jul-20 09:05 34.710178 -114.797054 121 7004ft 237kts
31-Jul-20 09:06 34.658370 -114.745970 142 6387ft 249kts
31-Jul-20 09:07 34.601635 -114.695281 142 5398ft 255kts
31-Jul-20 09:08 34.548930 -114.638934 130 4393ft 240kts
31-Jul-20 09:09 34.510235 -114.585828 128 3646ft 178kts
31-Jul-20 09:10 34.482645 -114.541574 120 2547ft 145kts
31-Jul-20 09:11 34.468561 -114.504340 103 1635ft 110kts
31-Jul-20 09:12 34.468158 -114.470785 80 1431ft 97kts
31-Jul-20 09:13 34.474325 -114.439569 39 1492ft 92kts
31-Jul-20 09:14 34.497971 -114.431547 355 1190ft 87kts
31-Jul-20 09:15 34.521681 -114.431945 354 655ft 81kts
31-Jul-20 09:16 34.528830 -114.431716 69 623ft 6kts
31-Jul-20 09:17 34.529027 -114.430531 69 621ft 0kts
31-Jul-20 09:18 34.529027 -114.430531 69 621ft 0kts
31-Jul-20 09:19 34.529027 -114.430531 69 622ft 0kts
31-Jul-20 09:20 34.529028 -114.430531 69 621ft 0kts
31-Jul-20 09:21 34.529028 -114.430531 69 621ft 0kts

Navigation Log

Ident Type
Flight plan parsing failed, navigation log unavailable